sensor_id;sensor_type;location;lat;lon;timestamp;P1;durP1;ratioP1;P2;durP2;ratioP2
23181;SDS011;11759;51.282;6.642;2023-01-28T00:00:36;23.20;;;11.60;;
23181;SDS011;11759;51.282;6.642;2023-01-28T00:03:06;19.13;;;10.87;;
23181;SDS011;11759;51.282;6.642;2023-01-28T00:05:32;19.88;;;11.18;;
23181;SDS011;11759;51.282;6.642;2023-01-28T00:07:59;20.38;;;11.20;;
23181;SDS011;11759;51.282;6.642;2023-01-28T00:10:25;25.40;;;11.52;;
23181;SDS011;11759;51.282;6.642;2023-01-28T00:12:52;24.38;;;12.95;;
23181;SDS011;11759;51.282;6.642;2023-01-28T00:15:19;23.33;;;11.45;;
23181;SDS011;11759;51.282;6.642;2023-01-28T00:17:45;21.42;;;12.07;;
23181;SDS011;11759;51.282;6.642;2023-01-28T00:20:12;22.17;;;10.90;;
23181;SDS011;11759;51.282;6.642;2023-01-28T00:22:38;19.88;;;11.48;;
23181;SDS011;11759;51.282;6.642;2023-01-28T00:25:05;20.60;;;11.27;;
23181;SDS011;11759;51.282;6.642;2023-01-28T00:27:32;21.05;;;11.48;;
23181;SDS011;11759;51.282;6.642;2023-01-28T00:29:58;26.27;;;11.88;;
23181;SDS011;11759;51.282;6.642;2023-01-28T00:32:25;24.30;;;12.07;;
23181;SDS011;11759;51.282;6.642;2023-01-28T00:34:51;19.17;;;10.80;;
23181;SDS011;11759;51.282;6.642;2023-01-28T00:37:18;19.50;;;11.40;;
23181;SDS011;11759;51.282;6.642;2023-01-28T00:39:45;24.02;;;12.25;;
23181;SDS011;11759;51.282;6.642;2023-01-28T00:42:12;21.20;;;11.90;;
23181;SDS011;11759;51.282;6.642;2023-01-28T00:44:38;19.55;;;10.88;;
23181;SDS011;11759;51.282;6.642;2023-01-28T00:47:05;21.88;;;11.65;;
23181;SDS011;11759;51.282;6.642;2023-01-28T00:49:31;21.25;;;11.75;;
23181;SDS011;11759;51.282;6.642;2023-01-28T00:51:58;21.38;;;11.48;;
23181;SDS011;11759;51.282;6.642;2023-01-28T00:54:25;26.00;;;13.13;;
23181;SDS011;11759;51.282;6.642;2023-01-28T00:56:51;24.15;;;12.27;;
23181;SDS011;11759;51.282;6.642;2023-01-28T00:59:19;24.88;;;11.93;;
23181;SDS011;11759;51.282;6.642;2023-01-28T01:01:46;24.35;;;13.57;;
23181;SDS011;11759;51.282;6.642;2023-01-28T01:04:12;24.58;;;13.10;;
23181;SDS011;11759;51.282;6.642;2023-01-28T01:06:39;23.17;;;11.75;;
23181;SDS011;11759;51.282;6.642;2023-01-28T01:09:06;23.58;;;12.60;;
23181;SDS011;11759;51.282;6.642;2023-01-28T01:11:35;22.88;;;12.48;;
23181;SDS011;11759;51.282;6.642;2023-01-28T01:14:02;24.92;;;12.63;;
23181;SDS011;11759;51.282;6.642;2023-01-28T01:16:31;23.92;;;13.20;;
23181;SDS011;11759;51.282;6.642;2023-01-28T01:18:58;23.73;;;13.30;;
23181;SDS011;11759;51.282;6.642;2023-01-28T01:21:29;25.40;;;13.40;;
23181;SDS011;11759;51.282;6.642;2023-01-28T01:23:56;28.77;;;14.95;;
23181;SDS011;11759;51.282;6.642;2023-01-28T01:26:23;23.67;;;12.73;;
23181;SDS011;11759;51.282;6.642;2023-01-28T01:28:50;26.30;;;12.95;;
23181;SDS011;11759;51.282;6.642;2023-01-28T01:31:18;26.15;;;13.73;;
23181;SDS011;11759;51.282;6.642;2023-01-28T01:33:47;27.15;;;14.48;;
23181;SDS011;11759;51.282;6.642;2023-01-28T01:36:15;28.50;;;13.60;;
23181;SDS011;11759;51.282;6.642;2023-01-28T01:38:44;28.63;;;14.23;;
23181;SDS011;11759;51.282;6.642;2023-01-28T01:41:33;28.70;;;15.05;;
23181;SDS011;11759;51.282;6.642;2023-01-28T01:43:59;28.83;;;15.00;;
23181;SDS011;11759;51.282;6.642;2023-01-28T01:46:40;27.20;;;13.60;;
23181;SDS011;11759;51.282;6.642;2023-01-28T01:49:25;25.83;;;12.82;;
23181;SDS011;11759;51.282;6.642;2023-01-28T01:51:56;24.25;;;13.13;;
23181;SDS011;11759;51.282;6.642;2023-01-28T01:54:31;22.50;;;13.00;;
23181;SDS011;11759;51.282;6.642;2023-01-28T01:56:59;25.67;;;13.48;;
23181;SDS011;11759;51.282;6.642;2023-01-28T01:59:27;25.23;;;13.75;;
23181;SDS011;11759;51.282;6.642;2023-01-28T02:01:56;27.17;;;12.98;;
23181;SDS011;11759;51.282;6.642;2023-01-28T02:04:25;24.52;;;13.40;;
23181;SDS011;11759;51.282;6.642;2023-01-28T02:06:55;26.20;;;13.43;;
23181;SDS011;11759;51.282;6.642;2023-01-28T02:09:29;22.38;;;12.35;;
23181;SDS011;11759;51.282;6.642;2023-01-28T02:12:02;23.40;;;12.95;;
23181;SDS011;11759;51.282;6.642;2023-01-28T02:14:32;24.83;;;13.63;;
23181;SDS011;11759;51.282;6.642;2023-01-28T02:17:01;26.33;;;14.05;;
23181;SDS011;11759;51.282;6.642;2023-01-28T02:19:31;35.75;;;15.52;;
23181;SDS011;11759;51.282;6.642;2023-01-28T02:22:05;30.05;;;15.50;;
23181;SDS011;11759;51.282;6.642;2023-01-28T02:24:50;29.90;;;15.95;;
23181;SDS011;11759;51.282;6.642;2023-01-28T02:32:58;30.83;;;15.32;;
23181;SDS011;11759;51.282;6.642;2023-01-28T02:38:32;30.63;;;15.60;;
23181;SDS011;11759;51.282;6.642;2023-01-28T02:41:07;29.42;;;14.82;;
23181;SDS011;11759;51.282;6.642;2023-01-28T02:43:39;32.70;;;15.88;;
23181;SDS011;11759;51.282;6.642;2023-01-28T02:46:11;36.35;;;17.58;;
23181;SDS011;11759;51.282;6.642;2023-01-28T02:49:02;30.35;;;16.17;;
23181;SDS011;11759;51.282;6.642;2023-01-28T02:57:03;28.58;;;13.57;;
23181;SDS011;11759;51.282;6.642;2023-01-28T02:59:56;25.63;;;12.98;;
23181;SDS011;11759;51.282;6.642;2023-01-28T03:02:28;25.05;;;12.57;;
23181;SDS011;11759;51.282;6.642;2023-01-28T03:05:13;21.95;;;10.98;;
23181;SDS011;11759;51.282;6.642;2023-01-28T03:07:46;24.55;;;11.55;;
23181;SDS011;11759;51.282;6.642;2023-01-28T03:10:15;30.70;;;12.68;;
23181;SDS011;11759;51.282;6.642;2023-01-28T03:12:44;24.83;;;11.60;;
23181;SDS011;11759;51.282;6.642;2023-01-28T03:15:45;23.50;;;10.95;;
23181;SDS011;11759;51.282;6.642;2023-01-28T03:18:36;22.92;;;11.25;;
23181;SDS011;11759;51.282;6.642;2023-01-28T03:21:29;21.20;;;10.40;;
23181;SDS011;11759;51.282;6.642;2023-01-28T03:24:20;21.27;;;10.32;;
23181;SDS011;11759;51.282;6.642;2023-01-28T03:27:31;26.38;;;11.45;;
23181;SDS011;11759;51.282;6.642;2023-01-28T03:30:18;22.20;;;10.48;;
23181;SDS011;11759;51.282;6.642;2023-01-28T03:33:10;24.35;;;11.20;;
23181;SDS011;11759;51.282;6.642;2023-01-28T03:35:57;22.63;;;11.25;;
23181;SDS011;11759;51.282;6.642;2023-01-28T03:38:42;20.70;;;10.93;;
23181;SDS011;11759;51.282;6.642;2023-01-28T03:41:21;20.30;;;10.45;;
23181;SDS011;11759;51.282;6.642;2023-01-28T03:43:52;20.13;;;10.00;;
23181;SDS011;11759;51.282;6.642;2023-01-28T03:46:19;17.67;;;8.93;;
23181;SDS011;11759;51.282;6.642;2023-01-28T03:48:46;18.65;;;10.80;;
23181;SDS011;11759;51.282;6.642;2023-01-28T03:51:13;18.38;;;10.07;;
23181;SDS011;11759;51.282;6.642;2023-01-28T03:53:41;17.35;;;10.73;;
23181;SDS011;11759;51.282;6.642;2023-01-28T03:56:08;19.73;;;11.10;;
23181;SDS011;11759;51.282;6.642;2023-01-28T03:58:38;21.58;;;12.13;;
23181;SDS011;11759;51.282;6.642;2023-01-28T04:01:22;22.67;;;11.65;;
23181;SDS011;11759;51.282;6.642;2023-01-28T04:03:49;26.73;;;12.30;;
23181;SDS011;11759;51.282;6.642;2023-01-28T04:06:21;20.90;;;10.45;;
23181;SDS011;11759;51.282;6.642;2023-01-28T04:09:14;24.95;;;11.38;;
23181;SDS011;11759;51.282;6.642;2023-01-28T04:11:56;23.00;;;9.90;;
23181;SDS011;11759;51.282;6.642;2023-01-28T04:14:31;21.80;;;11.15;;
23181;SDS011;11759;51.282;6.642;2023-01-28T04:17:22;19.00;;;11.27;;
23181;SDS011;11759;51.282;6.642;2023-01-28T04:19:49;17.25;;;10.20;;
23181;SDS011;11759;51.282;6.642;2023-01-28T04:22:17;24.60;;;12.30;;
23181;SDS011;11759;51.282;6.642;2023-01-28T04:24:44;23.10;;;10.60;;
23181;SDS011;11759;51.282;6.642;2023-01-28T04:27:11;34.15;;;11.30;;
23181;SDS011;11759;51.282;6.642;2023-01-28T04:29:37;16.67;;;9.20;;
23181;SDS011;11759;51.282;6.642;2023-01-28T04:32:27;24.90;;;11.80;;
23181;SDS011;11759;51.282;6.642;2023-01-28T04:35:04;25.63;;;11.38;;
23181;SDS011;11759;51.282;6.642;2023-01-28T04:37:50;20.42;;;11.40;;
23181;SDS011;11759;51.282;6.642;2023-01-28T04:40:27;22.15;;;11.85;;
23181;SDS011;11759;51.282;6.642;2023-01-28T04:43:02;22.20;;;11.30;;
23181;SDS011;11759;51.282;6.642;2023-01-28T04:45:48;18.40;;;11.20;;
23181;SDS011;11759;51.282;6.642;2023-01-28T04:48:53;21.60;;;11.70;;
23181;SDS011;11759;51.282;6.642;2023-01-28T04:51:37;19.77;;;11.63;;
23181;SDS011;11759;51.282;6.642;2023-01-28T04:54:16;21.80;;;12.43;;
23181;SDS011;11759;51.282;6.642;2023-01-28T04:56:43;27.48;;;12.40;;
23181;SDS011;11759;51.282;6.642;2023-01-28T04:59:09;22.13;;;11.63;;
23181;SDS011;11759;51.282;6.642;2023-01-28T05:01:37;21.13;;;11.63;;
23181;SDS011;11759;51.282;6.642;2023-01-28T05:04:04;26.52;;;12.45;;
23181;SDS011;11759;51.282;6.642;2023-01-28T05:06:34;24.07;;;12.47;;
23181;SDS011;11759;51.282;6.642;2023-01-28T05:09:07;23.48;;;11.80;;
23181;SDS011;11759;51.282;6.642;2023-01-28T05:11:34;26.45;;;12.90;;
23181;SDS011;11759;51.282;6.642;2023-01-28T05:14:04;21.93;;;11.83;;
23181;SDS011;11759;51.282;6.642;2023-01-28T05:16:37;24.10;;;11.88;;
23181;SDS011;11759;51.282;6.642;2023-01-28T05:19:05;23.40;;;12.23;;
23181;SDS011;11759;51.282;6.642;2023-01-28T05:21:35;27.38;;;12.88;;
23181;SDS011;11759;51.282;6.642;2023-01-28T05:24:06;30.35;;;14.05;;
23181;SDS011;11759;51.282;6.642;2023-01-28T05:26:33;26.30;;;13.68;;
23181;SDS011;11759;51.282;6.642;2023-01-28T05:28:59;24.88;;;13.43;;
23181;SDS011;11759;51.282;6.642;2023-01-28T05:31:26;34.38;;;14.32;;
23181;SDS011;11759;51.282;6.642;2023-01-28T05:33:53;29.13;;;14.38;;
23181;SDS011;11759;51.282;6.642;2023-01-28T05:36:21;25.17;;;13.43;;
23181;SDS011;11759;51.282;6.642;2023-01-28T05:38:48;30.38;;;14.63;;
23181;SDS011;11759;51.282;6.642;2023-01-28T05:41:14;28.05;;;13.52;;
23181;SDS011;11759;51.282;6.642;2023-01-28T05:43:43;25.98;;;14.70;;
23181;SDS011;11759;51.282;6.642;2023-01-28T05:46:26;22.75;;;12.68;;
23181;SDS011;11759;51.282;6.642;2023-01-28T05:49:04;27.30;;;13.63;;
23181;SDS011;11759;51.282;6.642;2023-01-28T05:51:51;23.35;;;12.68;;
23181;SDS011;11759;51.282;6.642;2023-01-28T05:54:20;28.00;;;12.95;;
23181;SDS011;11759;51.282;6.642;2023-01-28T05:56:47;20.83;;;12.75;;
23181;SDS011;11759;51.282;6.642;2023-01-28T05:59:15;24.85;;;13.93;;
23181;SDS011;11759;51.282;6.642;2023-01-28T06:01:43;21.40;;;13.15;;
23181;SDS011;11759;51.282;6.642;2023-01-28T06:04:09;22.92;;;13.27;;
23181;SDS011;11759;51.282;6.642;2023-01-28T06:06:37;25.27;;;13.27;;
23181;SDS011;11759;51.282;6.642;2023-01-28T06:09:17;33.95;;;14.82;;
23181;SDS011;11759;51.282;6.642;2023-01-28T06:11:44;36.40;;;17.15;;
23181;SDS011;11759;51.282;6.642;2023-01-28T06:14:12;40.17;;;18.45;;
23181;SDS011;11759;51.282;6.642;2023-01-28T06:16:50;36.20;;;17.30;;
23181;SDS011;11759;51.282;6.642;2023-01-28T06:19:46;38.17;;;17.48;;
23181;SDS011;11759;51.282;6.642;2023-01-28T06:22:13;39.75;;;18.40;;
23181;SDS011;11759;51.282;6.642;2023-01-28T06:24:39;33.72;;;17.10;;
23181;SDS011;11759;51.282;6.642;2023-01-28T06:27:06;31.55;;;15.55;;
23181;SDS011;11759;51.282;6.642;2023-01-28T06:29:33;30.75;;;15.60;;
23181;SDS011;11759;51.282;6.642;2023-01-28T06:31:59;26.23;;;14.05;;
23181;SDS011;11759;51.282;6.642;2023-01-28T06:34:26;35.70;;;16.48;;
23181;SDS011;11759;51.282;6.642;2023-01-28T06:36:52;28.35;;;13.43;;
23181;SDS011;11759;51.282;6.642;2023-01-28T06:39:19;22.20;;;12.13;;
23181;SDS011;11759;51.282;6.642;2023-01-28T06:41:48;23.63;;;12.63;;
23181;SDS011;11759;51.282;6.642;2023-01-28T06:44:14;22.17;;;13.30;;
23181;SDS011;11759;51.282;6.642;2023-01-28T06:46:41;21.45;;;13.30;;
23181;SDS011;11759;51.282;6.642;2023-01-28T06:49:08;22.17;;;12.82;;
23181;SDS011;11759;51.282;6.642;2023-01-28T06:51:35;20.95;;;12.57;;
23181;SDS011;11759;51.282;6.642;2023-01-28T06:54:01;22.70;;;12.75;;
23181;SDS011;11759;51.282;6.642;2023-01-28T06:56:28;27.02;;;13.50;;
23181;SDS011;11759;51.282;6.642;2023-01-28T06:58:54;24.27;;;13.13;;
23181;SDS011;11759;51.282;6.642;2023-01-28T07:01:21;28.45;;;14.38;;
23181;SDS011;11759;51.282;6.642;2023-01-28T07:03:48;23.42;;;13.05;;
23181;SDS011;11759;51.282;6.642;2023-01-28T07:06:14;26.55;;;13.88;;
23181;SDS011;11759;51.282;6.642;2023-01-28T07:08:41;26.90;;;13.45;;
23181;SDS011;11759;51.282;6.642;2023-01-28T07:11:07;27.00;;;13.80;;
23181;SDS011;11759;51.282;6.642;2023-01-28T07:13:34;23.77;;;12.38;;
23181;SDS011;11759;51.282;6.642;2023-01-28T07:16:00;25.50;;;14.23;;
23181;SDS011;11759;51.282;6.642;2023-01-28T07:18:27;27.00;;;14.60;;
23181;SDS011;11759;51.282;6.642;2023-01-28T07:20:53;28.33;;;14.55;;
23181;SDS011;11759;51.282;6.642;2023-01-28T07:23:20;24.23;;;12.85;;
23181;SDS011;11759;51.282;6.642;2023-01-28T07:25:47;27.90;;;14.57;;
23181;SDS011;11759;51.282;6.642;2023-01-28T07:28:13;28.10;;;14.85;;
23181;SDS011;11759;51.282;6.642;2023-01-28T07:30:49;24.33;;;12.85;;
23181;SDS011;11759;51.282;6.642;2023-01-28T07:33:19;29.75;;;14.02;;
23181;SDS011;11759;51.282;6.642;2023-01-28T07:35:46;29.15;;;14.57;;
23181;SDS011;11759;51.282;6.642;2023-01-28T07:38:13;31.33;;;15.27;;
23181;SDS011;11759;51.282;6.642;2023-01-28T07:40:40;30.02;;;14.90;;
23181;SDS011;11759;51.282;6.642;2023-01-28T07:43:08;26.70;;;14.40;;
23181;SDS011;11759;51.282;6.642;2023-01-28T07:45:36;32.20;;;14.52;;
23181;SDS011;11759;51.282;6.642;2023-01-28T07:48:05;29.73;;;15.25;;
23181;SDS011;11759;51.282;6.642;2023-01-28T07:50:34;28.27;;;15.40;;
23181;SDS011;11759;51.282;6.642;2023-01-28T07:53:05;30.73;;;15.13;;
23181;SDS011;11759;51.282;6.642;2023-01-28T07:55:33;31.73;;;15.43;;
23181;SDS011;11759;51.282;6.642;2023-01-28T07:58:03;29.85;;;14.48;;
23181;SDS011;11759;51.282;6.642;2023-01-28T08:00:32;26.23;;;13.60;;
23181;SDS011;11759;51.282;6.642;2023-01-28T08:03:00;32.85;;;14.38;;
23181;SDS011;11759;51.282;6.642;2023-01-28T08:05:30;29.05;;;15.38;;
23181;SDS011;11759;51.282;6.642;2023-01-28T08:08:09;26.15;;;12.77;;
23181;SDS011;11759;51.282;6.642;2023-01-28T08:10:36;26.40;;;14.40;;
23181;SDS011;11759;51.282;6.642;2023-01-28T08:13:04;31.98;;;14.57;;
23181;SDS011;11759;51.282;6.642;2023-01-28T08:15:31;25.85;;;14.02;;
23181;SDS011;11759;51.282;6.642;2023-01-28T08:18:02;29.17;;;14.27;;
23181;SDS011;11759;51.282;6.642;2023-01-28T08:20:29;22.35;;;13.32;;
23181;SDS011;11759;51.282;6.642;2023-01-28T08:23:10;25.38;;;14.32;;
23181;SDS011;11759;51.282;6.642;2023-01-28T08:25:38;28.35;;;14.68;;
23181;SDS011;11759;51.282;6.642;2023-01-28T08:28:05;23.95;;;14.77;;
23181;SDS011;11759;51.282;6.642;2023-01-28T08:30:32;27.83;;;13.13;;
23181;SDS011;11759;51.282;6.642;2023-01-28T08:32:59;28.08;;;15.07;;
23181;SDS011;11759;51.282;6.642;2023-01-28T08:35:26;26.33;;;15.25;;
23181;SDS011;11759;51.282;6.642;2023-01-28T08:37:53;27.67;;;15.32;;
23181;SDS011;11759;51.282;6.642;2023-01-28T08:40:20;28.85;;;15.18;;
23181;SDS011;11759;51.282;6.642;2023-01-28T08:42:47;30.10;;;15.50;;
23181;SDS011;11759;51.282;6.642;2023-01-28T08:45:17;28.45;;;15.90;;
23181;SDS011;11759;51.282;6.642;2023-01-28T08:47:54;31.42;;;16.15;;
23181;SDS011;11759;51.282;6.642;2023-01-28T08:50:22;30.65;;;15.23;;
23181;SDS011;11759;51.282;6.642;2023-01-28T08:52:58;31.38;;;16.05;;
23181;SDS011;11759;51.282;6.642;2023-01-28T08:55:26;29.90;;;15.45;;
23181;SDS011;11759;51.282;6.642;2023-01-28T08:57:53;29.65;;;16.00;;
23181;SDS011;11759;51.282;6.642;2023-01-28T09:00:22;27.02;;;15.10;;
23181;SDS011;11759;51.282;6.642;2023-01-28T09:02:50;28.55;;;15.48;;
23181;SDS011;11759;51.282;6.642;2023-01-28T09:05:17;28.05;;;15.95;;
23181;SDS011;11759;51.282;6.642;2023-01-28T09:07:44;31.17;;;15.18;;
23181;SDS011;11759;51.282;6.642;2023-01-28T09:10:11;25.80;;;15.18;;
23181;SDS011;11759;51.282;6.642;2023-01-28T09:12:39;28.17;;;15.50;;
23181;SDS011;11759;51.282;6.642;2023-01-28T09:15:06;30.85;;;16.52;;
23181;SDS011;11759;51.282;6.642;2023-01-28T09:17:33;31.17;;;15.77;;
23181;SDS011;11759;51.282;6.642;2023-01-28T09:19:59;29.85;;;16.10;;
23181;SDS011;11759;51.282;6.642;2023-01-28T09:22:26;35.25;;;16.52;;
23181;SDS011;11759;51.282;6.642;2023-01-28T09:24:52;31.02;;;17.08;;
23181;SDS011;11759;51.282;6.642;2023-01-28T09:27:20;38.97;;;19.67;;
23181;SDS011;11759;51.282;6.642;2023-01-28T09:29:46;46.95;;;20.02;;
23181;SDS011;11759;51.282;6.642;2023-01-28T09:32:13;46.97;;;19.48;;
23181;SDS011;11759;51.282;6.642;2023-01-28T09:34:39;46.30;;;20.15;;
23181;SDS011;11759;51.282;6.642;2023-01-28T09:37:06;47.95;;;20.83;;
23181;SDS011;11759;51.282;6.642;2023-01-28T09:39:33;47.22;;;20.10;;
23181;SDS011;11759;51.282;6.642;2023-01-28T09:45:05;50.05;;;20.20;;
23181;SDS011;11759;51.282;6.642;2023-01-28T09:50:04;47.28;;;19.45;;
23181;SDS011;11759;51.282;6.642;2023-01-28T09:52:34;47.47;;;19.65;;
23181;SDS011;11759;51.282;6.642;2023-01-28T09:55:04;53.03;;;21.00;;
23181;SDS011;11759;51.282;6.642;2023-01-28T09:57:36;48.27;;;20.23;;
23181;SDS011;11759;51.282;6.642;2023-01-28T10:00:13;44.67;;;19.35;;
23181;SDS011;11759;51.282;6.642;2023-01-28T10:06:09;36.13;;;15.25;;
23181;SDS011;11759;51.282;6.642;2023-01-28T10:17:15;52.33;;;21.25;;
23181;SDS011;11759;51.282;6.642;2023-01-28T10:19:50;51.58;;;22.45;;
23181;SDS011;11759;51.282;6.642;2023-01-28T10:22:53;49.47;;;20.73;;
23181;SDS011;11759;51.282;6.642;2023-01-28T10:27:57;48.00;;;21.00;;
23181;SDS011;11759;51.282;6.642;2023-01-28T10:30:27;43.33;;;20.10;;
23181;SDS011;11759;51.282;6.642;2023-01-28T10:33:13;52.58;;;22.73;;
23181;SDS011;11759;51.282;6.642;2023-01-28T10:35:43;51.53;;;22.42;;
23181;SDS011;11759;51.282;6.642;2023-01-28T10:38:13;60.88;;;24.33;;
23181;SDS011;11759;51.282;6.642;2023-01-28T10:40:41;61.75;;;24.83;;
23181;SDS011;11759;51.282;6.642;2023-01-28T10:43:08;51.17;;;22.45;;
23181;SDS011;11759;51.282;6.642;2023-01-28T10:45:36;55.80;;;25.88;;
23181;SDS011;11759;51.282;6.642;2023-01-28T10:48:14;55.50;;;23.75;;
23181;SDS011;11759;51.282;6.642;2023-01-28T10:50:50;55.63;;;23.77;;
23181;SDS011;11759;51.282;6.642;2023-01-28T10:53:18;48.17;;;21.30;;
23181;SDS011;11759;51.282;6.642;2023-01-28T10:58:20;45.67;;;21.50;;
23181;SDS011;11759;51.282;6.642;2023-01-28T11:00:53;50.33;;;23.92;;
23181;SDS011;11759;51.282;6.642;2023-01-28T11:03:24;52.47;;;21.77;;
23181;SDS011;11759;51.282;6.642;2023-01-28T11:05:57;50.95;;;23.38;;
23181;SDS011;11759;51.282;6.642;2023-01-28T11:08:25;48.97;;;22.63;;
23181;SDS011;11759;51.282;6.642;2023-01-28T11:10:54;38.00;;;18.10;;
23181;SDS011;11759;51.282;6.642;2023-01-28T11:13:22;43.28;;;19.35;;
23181;SDS011;11759;51.282;6.642;2023-01-28T11:16:03;39.38;;;18.42;;
23181;SDS011;11759;51.282;6.642;2023-01-28T11:18:38;47.78;;;21.70;;
23181;SDS011;11759;51.282;6.642;2023-01-28T11:21:06;39.13;;;19.90;;
23181;SDS011;11759;51.282;6.642;2023-01-28T11:23:53;45.08;;;19.85;;
23181;SDS011;11759;51.282;6.642;2023-01-28T11:26:31;45.58;;;20.20;;
23181;SDS011;11759;51.282;6.642;2023-01-28T11:29:00;54.65;;;22.60;;
23181;SDS011;11759;51.282;6.642;2023-01-28T11:31:26;47.47;;;21.13;;
23181;SDS011;11759;51.282;6.642;2023-01-28T11:33:55;48.47;;;22.35;;
23181;SDS011;11759;51.282;6.642;2023-01-28T11:36:23;46.45;;;22.20;;
23181;SDS011;11759;51.282;6.642;2023-01-28T11:43:57;45.28;;;20.27;;
23181;SDS011;11759;51.282;6.642;2023-01-28T11:55:40;45.97;;;21.10;;
23181;SDS011;11759;51.282;6.642;2023-01-28T12:06:51;43.30;;;18.30;;
23181;SDS011;11759;51.282;6.642;2023-01-28T12:09:51;40.55;;;17.63;;
23181;SDS011;11759;51.282;6.642;2023-01-28T12:23:44;54.00;;;22.40;;
23181;SDS011;11759;51.282;6.642;2023-01-28T12:43:00;45.20;;;19.63;;
23181;SDS011;11759;51.282;6.642;2023-01-28T12:45:38;45.53;;;20.13;;
23181;SDS011;11759;51.282;6.642;2023-01-28T12:48:12;46.08;;;19.98;;
23181;SDS011;11759;51.282;6.642;2023-01-28T12:50:45;46.17;;;22.08;;
23181;SDS011;11759;51.282;6.642;2023-01-28T12:53:31;52.00;;;24.60;;
23181;SDS011;11759;51.282;6.642;2023-01-28T12:56:49;61.72;;;26.25;;
23181;SDS011;11759;51.282;6.642;2023-01-28T12:59:01;52.00;;;24.63;;
23181;SDS011;11759;51.282;6.642;2023-01-28T13:01:41;52.45;;;25.25;;
23181;SDS011;11759;51.282;6.642;2023-01-28T13:04:15;55.28;;;25.63;;
23181;SDS011;11759;51.282;6.642;2023-01-28T13:06:51;56.58;;;25.95;;
23181;SDS011;11759;51.282;6.642;2023-01-28T13:09:22;54.17;;;23.65;;
23181;SDS011;11759;51.282;6.642;2023-01-28T13:11:50;50.90;;;22.92;;
23181;SDS011;11759;51.282;6.642;2023-01-28T13:14:18;47.83;;;22.23;;
23181;SDS011;11759;51.282;6.642;2023-01-28T13:16:48;51.72;;;23.58;;
23181;SDS011;11759;51.282;6.642;2023-01-28T13:21:44;52.42;;;22.75;;
23181;SDS011;11759;51.282;6.642;2023-01-28T13:26:45;50.72;;;22.95;;
23181;SDS011;11759;51.282;6.642;2023-01-28T13:31:58;50.40;;;22.10;;
23181;SDS011;11759;51.282;6.642;2023-01-28T13:36:55;53.33;;;23.30;;
23181;SDS011;11759;51.282;6.642;2023-01-28T13:39:23;51.58;;;23.60;;
23181;SDS011;11759;51.282;6.642;2023-01-28T13:41:52;54.03;;;23.60;;
23181;SDS011;11759;51.282;6.642;2023-01-28T13:44:26;47.00;;;22.83;;
23181;SDS011;11759;51.282;6.642;2023-01-28T13:46:58;48.33;;;22.33;;
23181;SDS011;11759;51.282;6.642;2023-01-28T13:49:41;47.50;;;22.52;;
23181;SDS011;11759;51.282;6.642;2023-01-28T13:54:37;48.88;;;23.30;;
23181;SDS011;11759;51.282;6.642;2023-01-28T13:57:11;47.60;;;23.00;;
23181;SDS011;11759;51.282;6.642;2023-01-28T14:05:49;54.92;;;24.70;;
23181;SDS011;11759;51.282;6.642;2023-01-28T14:08:28;66.00;;;28.23;;
23181;SDS011;11759;51.282;6.642;2023-01-28T14:19:00;51.53;;;23.90;;
23181;SDS011;11759;51.282;6.642;2023-01-28T14:21:27;55.25;;;25.30;;
23181;SDS011;11759;51.282;6.642;2023-01-28T14:23:58;58.10;;;25.58;;
23181;SDS011;11759;51.282;6.642;2023-01-28T14:26:27;55.00;;;25.10;;
23181;SDS011;11759;51.282;6.642;2023-01-28T14:31:32;54.50;;;25.58;;
23181;SDS011;11759;51.282;6.642;2023-01-28T14:34:05;53.65;;;24.23;;
23181;SDS011;11759;51.282;6.642;2023-01-28T14:36:56;51.95;;;24.23;;
23181;SDS011;11759;51.282;6.642;2023-01-28T14:39:26;49.47;;;24.00;;
23181;SDS011;11759;51.282;6.642;2023-01-28T14:41:57;58.33;;;24.90;;
23181;SDS011;11759;51.282;6.642;2023-01-28T14:44:27;53.80;;;23.80;;
23181;SDS011;11759;51.282;6.642;2023-01-28T14:47:08;55.88;;;25.83;;
23181;SDS011;11759;51.282;6.642;2023-01-28T14:49:54;49.15;;;24.65;;
23181;SDS011;11759;51.282;6.642;2023-01-28T14:52:39;56.33;;;25.67;;
23181;SDS011;11759;51.282;6.642;2023-01-28T14:55:21;57.30;;;25.15;;
23181;SDS011;11759;51.282;6.642;2023-01-28T14:57:55;56.53;;;24.55;;
23181;SDS011;11759;51.282;6.642;2023-01-28T15:00:24;56.10;;;24.55;;
23181;SDS011;11759;51.282;6.642;2023-01-28T15:02:52;51.20;;;24.83;;
23181;SDS011;11759;51.282;6.642;2023-01-28T15:05:21;50.65;;;24.58;;
23181;SDS011;11759;51.282;6.642;2023-01-28T15:07:51;57.78;;;24.73;;
23181;SDS011;11759;51.282;6.642;2023-01-28T15:10:19;57.75;;;25.35;;
23181;SDS011;11759;51.282;6.642;2023-01-28T15:12:48;49.80;;;24.23;;
23181;SDS011;11759;51.282;6.642;2023-01-28T15:18:15;46.65;;;22.70;;
23181;SDS011;11759;51.282;6.642;2023-01-28T15:20:49;53.33;;;23.65;;
23181;SDS011;11759;51.282;6.642;2023-01-28T15:23:17;55.72;;;23.75;;
23181;SDS011;11759;51.282;6.642;2023-01-28T15:25:49;53.28;;;23.52;;
23181;SDS011;11759;51.282;6.642;2023-01-28T15:28:18;58.53;;;25.85;;
23181;SDS011;11759;51.282;6.642;2023-01-28T15:30:50;54.65;;;24.73;;
23181;SDS011;11759;51.282;6.642;2023-01-28T15:33:19;55.28;;;24.98;;
23181;SDS011;11759;51.282;6.642;2023-01-28T15:35:47;56.33;;;25.40;;
23181;SDS011;11759;51.282;6.642;2023-01-28T15:38:20;59.45;;;25.20;;
23181;SDS011;11759;51.282;6.642;2023-01-28T15:40:49;59.67;;;25.17;;
23181;SDS011;11759;51.282;6.642;2023-01-28T15:43:42;58.17;;;24.10;;
23181;SDS011;11759;51.282;6.642;2023-01-28T15:46:10;59.85;;;24.88;;
23181;SDS011;11759;51.282;6.642;2023-01-28T15:48:40;54.53;;;24.50;;
23181;SDS011;11759;51.282;6.642;2023-01-28T15:51:08;57.70;;;24.73;;
23181;SDS011;11759;51.282;6.642;2023-01-28T15:53:45;60.60;;;25.88;;
23181;SDS011;11759;51.282;6.642;2023-01-28T15:56:13;63.00;;;26.33;;
23181;SDS011;11759;51.282;6.642;2023-01-28T15:58:40;64.63;;;26.25;;
23181;SDS011;11759;51.282;6.642;2023-01-28T16:01:11;64.63;;;26.23;;
23181;SDS011;11759;51.282;6.642;2023-01-28T16:03:40;67.72;;;27.08;;
23181;SDS011;11759;51.282;6.642;2023-01-28T16:06:09;75.95;;;28.17;;
23181;SDS011;11759;51.282;6.642;2023-01-28T16:08:40;63.97;;;26.80;;
23181;SDS011;11759;51.282;6.642;2023-01-28T16:11:11;75.10;;;28.23;;
23181;SDS011;11759;51.282;6.642;2023-01-28T16:13:41;66.05;;;27.13;;
23181;SDS011;11759;51.282;6.642;2023-01-28T16:16:09;73.35;;;28.75;;
23181;SDS011;11759;51.282;6.642;2023-01-28T16:18:40;75.05;;;29.05;;
23181;SDS011;11759;51.282;6.642;2023-01-28T16:21:23;72.68;;;29.27;;
23181;SDS011;11759;51.282;6.642;2023-01-28T16:24:01;75.55;;;30.10;;
23181;SDS011;11759;51.282;6.642;2023-01-28T16:26:54;80.38;;;30.48;;
23181;SDS011;11759;51.282;6.642;2023-01-28T16:29:32;79.78;;;29.38;;
23181;SDS011;11759;51.282;6.642;2023-01-28T16:31:59;80.63;;;31.33;;
23181;SDS011;11759;51.282;6.642;2023-01-28T16:34:26;79.55;;;30.33;;
23181;SDS011;11759;51.282;6.642;2023-01-28T16:36:59;77.50;;;29.40;;
23181;SDS011;11759;51.282;6.642;2023-01-28T16:39:26;84.53;;;30.25;;
23181;SDS011;11759;51.282;6.642;2023-01-28T16:41:53;80.30;;;30.35;;
23181;SDS011;11759;51.282;6.642;2023-01-28T16:44:22;80.38;;;29.95;;
23181;SDS011;11759;51.282;6.642;2023-01-28T16:46:48;74.78;;;28.77;;